Time;durP1;ratioP1;P1;durP2;ratioP2;P2;SDS_P1;SDS_P2;PMS_P1;PMS_P2;Temp;Humidity;BMP_temperature;BMP_pressure;BME280_temperature;BME280_humidity;BME280_pressure;Samples;Min_cycle;Max_cycle;Signal;HPM_P1;HPM_P2
2022/10/28 00:00:04;;;;;;;5.88;2.22;;;11.70;99.90;;;;;;4990045;28;20033;-74
2022/10/28 00:02:31;;;;;;;2.78;2.17;;;11.60;99.90;;;;;;4989737;28;20034;-75
2022/10/28 00:04:57;;;;;;;5.07;2.80;;;11.50;99.90;;;;;;4990145;28;20062;-73
2022/10/28 00:07:23;;;;;;;5.53;2.70;;;11.50;99.90;;;;;;4990099;28;20049;-74
2022/10/28 00:09:49;;;;;;;4.30;2.55;;;11.40;99.90;;;;;;4990123;28;20199;-74
2022/10/28 00:12:15;;;;;;;6.47;3.00;;;11.40;99.90;;;;;;4990102;28;20049;-75
2022/10/28 00:14:41;;;;;;;10.90;2.15;;;11.40;99.90;;;;;;4989945;28;20038;-75
2022/10/28 00:17:06;;;;;;;13.10;2.67;;;11.40;99.90;;;;;;4989806;28;20549;-75
2022/10/28 00:19:32;;;;;;;2.70;2.20;;;11.30;99.90;;;;;;4989844;28;20027;-74
2022/10/28 00:21:58;;;;;;;2.78;2.45;;;11.30;99.90;;;;;;4993292;28;20407;-74
2022/10/28 00:24:24;;;;;;;6.35;3.03;;;11.40;99.90;;;;;;4993523;28;20360;-75
2022/10/28 00:26:49;;;;;;;2.72;2.03;;;11.40;99.90;;;;;;4993576;28;20364;-75
2022/10/28 00:29:18;;;;;;;2.70;2.15;;;11.40;99.90;;;;;;4993441;28;20057;-74
2022/10/28 00:31:44;;;;;;;5.75;2.25;;;11.50;99.90;;;;;;4993714;28;20031;-75
2022/10/28 00:34:15;;;;;;;5.38;2.42;;;11.50;99.90;;;;;;4993695;28;20432;-74
2022/10/28 00:36:43;;;;;;;3.83;2.75;;;11.50;99.90;;;;;;4993818;28;20046;-74
2022/10/28 00:39:21;;;;;;;8.15;2.53;;;11.50;99.90;;;;;;4993242;28;20483;-74
2022/10/28 00:41:53;;;;;;;5.78;2.40;;;11.50;99.90;;;;;;4993202;28;20026;-77
2022/10/28 00:44:47;;;;;;;4.40;3.08;;;11.50;99.90;;;;;;4993121;28;20080;-77
2022/10/28 00:47:19;;;;;;;4.70;2.60;;;11.50;99.90;;;;;;4992852;28;20022;-76
2022/10/28 00:49:47;;;;;;;4.93;3.13;;;11.50;99.90;;;;;;4993154;28;20084;-74
2022/10/28 00:52:18;;;;;;;7.88;3.95;;;11.60;99.90;;;;;;4992846;28;20074;-75
2022/10/28 00:54:44;;;;;;;12.20;3.10;;;11.60;99.90;;;;;;4993178;28;20473;-74
2022/10/28 00:57:15;;;;;;;8.70;4.43;;;11.60;99.90;;;;;;4993405;28;20125;-76
2022/10/28 00:59:46;;;;;;;7.05;2.78;;;11.60;99.90;;;;;;4992787;28;20050;-74
2022/10/28 01:02:12;;;;;;;4.05;3.20;;;11.60;99.90;;;;;;4992728;28;20113;-77
2022/10/28 01:04:38;;;;;;;2.88;2.60;;;11.60;99.90;;;;;;4992740;28;20082;-74
2022/10/28 01:07:04;;;;;;;7.03;2.28;;;11.50;99.90;;;;;;4992976;28;20035;-75
2022/10/28 01:09:30;;;;;;;4.78;2.25;;;11.50;99.90;;;;;;4992809;28;20483;-74
2022/10/28 01:11:59;;;;;;;5.28;2.85;;;11.50;99.90;;;;;;4991387;28;20037;-77
2022/10/28 01:14:46;;;;;;;3.63;2.87;;;11.50;99.90;;;;;;4992464;28;20101;-74
2022/10/28 01:17:34;;;;;;;7.40;2.63;;;11.50;99.90;;;;;;4992078;28;20266;-74
2022/10/28 01:20:33;;;;;;;9.88;3.10;;;11.50;99.90;;;;;;4984957;28;20117;-76
2022/10/28 01:23:07;;;;;;;4.13;2.87;;;11.50;99.90;;;;;;4992299;28;20046;-74
2022/10/28 01:25:46;;;;;;;5.78;2.58;;;11.50;99.90;;;;;;4991019;28;20026;-77
2022/10/28 01:28:27;;;;;;;4.47;2.63;;;11.40;99.90;;;;;;4992552;28;20050;-75
2022/10/28 01:30:59;;;;;;;9.57;2.92;;;11.50;99.90;;;;;;4992216;28;20033;-74
2022/10/28 01:33:53;;;;;;;3.72;2.50;;;11.50;99.90;;;;;;4991998;28;20023;-76
2022/10/28 01:36:33;;;;;;;6.30;3.92;;;11.50;99.90;;;;;;4951926;28;20069;-76
2022/10/28 01:39:39;;;;;;;7.25;3.47;;;11.50;99.90;;;;;;4992326;28;20026;-74
2022/10/28 01:42:23;;;;;;;4.57;2.13;;;11.50;99.90;;;;;;4937570;28;20046;-74
2022/10/28 01:44:59;;;;;;;3.00;2.72;;;11.50;99.90;;;;;;4992558;28;20022;-75
2022/10/28 01:47:36;;;;;;;6.70;2.88;;;11.50;99.90;;;;;;4990405;28;20022;-75
2022/10/28 01:50:21;;;;;;;3.47;2.30;;;11.50;99.90;;;;;;4990485;28;20054;-75
2022/10/28 01:52:48;;;;;;;4.40;2.65;;;11.40;99.90;;;;;;4990818;28;20045;-74
2022/10/28 01:55:26;;;;;;;12.40;3.20;;;11.50;99.90;;;;;;4991672;28;20514;-76
2022/10/28 01:57:56;;;;;;;8.10;3.72;;;11.50;99.90;;;;;;4991630;28;20027;-77
2022/10/28 02:00:22;;;;;;;4.95;2.83;;;11.50;99.90;;;;;;4991981;28;20022;-76
2022/10/28 02:02:49;;;;;;;9.98;3.42;;;11.40;99.90;;;;;;4989993;28;20073;-74
2022/10/28 02:05:39;;;;;;;5.63;2.53;;;11.40;99.90;;;;;;4991613;28;20030;-75
2022/10/28 02:08:17;;;;;;;5.05;2.83;;;11.50;99.90;;;;;;4991522;28;20036;-76
2022/10/28 02:11:11;;;;;;;6.70;3.30;;;11.50;99.90;;;;;;4991502;28;20027;-74
2022/10/28 02:14:14;;;;;;;2.50;2.13;;;11.60;99.90;;;;;;4991797;28;20034;-75
2022/10/28 02:16:50;;;;;;;12.38;3.20;;;11.60;99.90;;;;;;4978888;28;20042;-75
2022/10/28 02:19:44;;;;;;;7.57;2.83;;;11.50;99.90;;;;;;4991389;28;20023;-73
2022/10/28 02:22:26;;;;;;;4.00;2.40;;;11.50;99.90;;;;;;4991294;28;20050;-74
2022/10/28 02:25:20;;;;;;;8.35;3.25;;;11.50;99.90;;;;;;4989892;28;20081;-77
2022/10/28 02:28:06;;;;;;;5.13;2.42;;;11.40;99.90;;;;;;4988196;28;20450;-76
2022/10/28 02:30:44;;;;;;;3.00;2.70;;;11.40;99.90;;;;;;4990674;28;20372;-74
2022/10/28 02:33:14;;;;;;;6.55;3.00;;;11.40;99.90;;;;;;4989407;28;20018;-74
2022/10/28 02:36:03;;;;;;;10.63;3.10;;;11.30;99.90;;;;;;4991067;28;20034;-75
2022/10/28 02:38:49;;;;;;;4.18;2.88;;;11.30;99.90;;;;;;4990727;28;20018;-76
2022/10/28 02:41:20;;;;;;;17.83;2.38;;;11.40;99.90;;;;;;4989587;28;20022;-75
2022/10/28 02:43:51;;;;;;;2.47;2.25;;;11.30;99.90;;;;;;4988933;28;20030;-75
2022/10/28 02:46:18;;;;;;;2.83;2.35;;;11.30;99.90;;;;;;4990450;28;20026;-77
2022/10/28 02:48:53;;;;;;;9.82;2.50;;;11.20;99.90;;;;;;4990706;28;20026;-75
2022/10/28 02:51:24;;;;;;;2.70;2.50;;;11.10;99.90;;;;;;4990793;28;20081;-74
2022/10/28 02:54:16;;;;;;;3.95;2.42;;;11.10;99.90;;;;;;4990940;28;20086;-74
2022/10/28 02:56:54;;;;;;;4.22;2.95;;;11.10;99.90;;;;;;4990795;28;20043;-74
2022/10/28 02:59:22;;;;;;;16.38;3.85;;;11.10;99.90;;;;;;4990539;28;20113;-74
2022/10/28 03:01:48;;;;;;;3.35;2.45;;;11.00;99.90;;;;;;4990374;28;20038;-75
2022/10/28 03:04:14;;;;;;;4.82;3.22;;;11.00;99.90;;;;;;4989156;28;20393;-76
2022/10/28 03:06:40;;;;;;;3.08;2.75;;;11.00;99.90;;;;;;4990648;28;20034;-76
2022/10/28 03:09:05;;;;;;;17.77;2.42;;;11.00;99.90;;;;;;4989163;28;20023;-77
2022/10/28 03:11:31;;;;;;;4.15;3.13;;;10.90;99.90;;;;;;4990543;28;20030;-74
2022/10/28 03:13:57;;;;;;;4.93;2.17;;;10.90;99.90;;;;;;4990483;28;20117;-75
2022/10/28 03:16:23;;;;;;;4.20;2.45;;;10.80;99.90;;;;;;4990218;28;20037;-75
2022/10/28 03:18:49;;;;;;;4.53;2.42;;;10.80;99.90;;;;;;4990474;28;20430;-74
2022/10/28 03:21:14;;;;;;;11.90;2.75;;;10.70;99.90;;;;;;4990203;28;20053;-76
2022/10/28 03:23:40;;;;;;;5.38;2.38;;;10.70;99.90;;;;;;4990317;28;20031;-75
2022/10/28 03:26:06;;;;;;;10.65;2.40;;;10.70;99.90;;;;;;4990311;28;20113;-75
2022/10/28 03:28:32;;;;;;;6.13;2.38;;;10.70;99.90;;;;;;4990368;28;20078;-75
2022/10/28 03:30:57;;;;;;;10.60;4.70;;;10.70;99.90;;;;;;4990223;28;20019;-75
2022/10/28 03:33:23;;;;;;;5.43;2.40;;;10.80;99.90;;;;;;4990294;28;20031;-75
2022/10/28 03:35:49;;;;;;;7.03;2.20;;;;;;;;;;4990490;28;20041;-76
2022/10/28 03:38:14;;;;;;;4.93;2.72;;;10.80;99.90;;;;;;4990261;28;20080;-74
2022/10/28 03:40:40;;;;;;;4.10;2.40;;;10.80;99.90;;;;;;4990584;28;20045;-74
2022/10/28 03:43:06;;;;;;;5.20;2.83;;;10.90;99.90;;;;;;4990069;28;20052;-75
2022/10/28 03:45:31;;;;;;;6.93;3.63;;;11.10;99.90;;;;;;4990424;28;20033;-76
2022/10/28 03:47:57;;;;;;;6.32;2.50;;;11.10;99.90;;;;;;4990038;28;20027;-76
2022/10/28 03:50:24;;;;;;;3.97;2.95;;;11.10;99.90;;;;;;4990460;28;20026;-75
2022/10/28 03:52:50;;;;;;;12.85;2.47;;;11.10;99.90;;;;;;4990077;28;20014;-75
2022/10/28 03:55:16;;;;;;;3.90;2.15;;;11.20;99.90;;;;;;4991112;28;20101;-76
2022/10/28 03:57:42;;;;;;;2.20;2.00;;;11.20;99.90;;;;;;4993870;28;20019;-76
2022/10/28 04:00:08;;;;;;;4.00;2.33;;;11.30;99.90;;;;;;4993785;28;20030;-75
2022/10/28 04:02:34;;;;;;;6.35;3.55;;;11.30;99.90;;;;;;4992493;28;20080;-75
2022/10/28 04:04:59;;;;;;;3.47;2.05;;;11.40;99.90;;;;;;4993912;28;20038;-75
2022/10/28 04:07:25;;;;;;;6.70;2.25;;;11.40;99.90;;;;;;4993700;28;20019;-76
2022/10/28 04:09:51;;;;;;;3.70;2.05;;;11.40;99.90;;;;;;4993738;28;20041;-74
2022/10/28 04:12:17;;;;;;;2.58;2.08;;;11.40;99.90;;;;;;4993724;28;20529;-75
2022/10/28 04:14:43;;;;;;;4.32;2.92;;;11.30;99.90;;;;;;4993665;28;20038;-74
2022/10/28 04:17:09;;;;;;;9.40;3.45;;;11.30;99.90;;;;;;4993324;28;20026;-74
2022/10/28 04:19:35;;;;;;;5.70;2.78;;;11.30;99.90;;;;;;4994344;28;20463;-78
2022/10/28 04:22:00;;;;;;;7.07;3.00;;;11.40;99.90;;;;;;4997491;28;20042;-77
2022/10/28 04:24:26;;;;;;;8.80;3.15;;;11.50;99.90;;;;;;4998135;28;20022;-75
2022/10/28 04:26:52;;;;;;;7.05;2.67;;;11.50;99.90;;;;;;4997737;28;20037;-78
2022/10/28 04:29:18;;;;;;;4.80;3.10;;;11.60;99.90;;;;;;4998465;28;20074;-79
2022/10/28 04:31:44;;;;;;;8.38;3.13;;;11.70;99.90;;;;;;4996996;28;20026;-74
2022/10/28 04:34:10;;;;;;;6.50;2.75;;;;;;;;;;4993378;28;20077;-75
2022/10/28 04:36:36;;;;;;;17.50;4.28;;;;;;;;;;4993341;28;20372;-77
2022/10/28 04:39:02;;;;;;;6.47;2.88;;;11.80;99.90;;;;;;4993128;28;20058;-76
2022/10/28 04:41:27;;;;;;;4.60;2.55;;;11.80;99.90;;;;;;4993527;28;20111;-74
2022/10/28 04:43:55;;;;;;;3.20;2.17;;;11.80;99.90;;;;;;4993261;28;20030;-76
2022/10/28 04:46:21;;;;;;;6.05;2.75;;;;;;;;;;4991647;28;20375;-76
2022/10/28 04:48:47;;;;;;;6.78;2.95;;;11.80;99.90;;;;;;4993211;28;20121;-74
2022/10/28 04:51:13;;;;;;;4.13;2.80;;;11.80;99.90;;;;;;4993013;28;20526;-77
2022/10/28 04:53:38;;;;;;;4.07;2.47;;;11.90;99.90;;;;;;4993389;28;20045;-77
2022/10/28 04:56:04;;;;;;;2.50;2.30;;;12.00;99.90;;;;;;4992802;28;20034;-76
2022/10/28 04:58:30;;;;;;;8.82;3.00;;;12.10;99.90;;;;;;4993205;28;20015;-75
2022/10/28 05:00:56;;;;;;;3.75;3.30;;;12.10;99.90;;;;;;4992575;28;20037;-77
2022/10/28 05:03:21;;;;;;;10.93;2.45;;;12.10;99.90;;;;;;4992783;28;20098;-75
2022/10/28 05:05:47;;;;;;;8.02;4.15;;;12.00;99.90;;;;;;4992860;28;20019;-74
2022/10/28 05:08:13;;;;;;;3.45;2.42;;;12.00;99.90;;;;;;4992781;28;20105;-75
2022/10/28 05:10:39;;;;;;;7.82;3.83;;;12.10;99.90;;;;;;4992834;28;20113;-75
2022/10/28 05:13:05;;;;;;;5.55;3.28;;;12.10;99.90;;;;;;4992535;28;20023;-75
2022/10/28 05:15:30;;;;;;;8.38;2.63;;;12.10;99.90;;;;;;4992561;28;20038;-76
2022/10/28 05:17:56;;;;;;;8.27;3.10;;;12.10;99.90;;;;;;4992756;28;20018;-77
2022/10/28 05:20:22;;;;;;;4.43;3.20;;;12.20;99.90;;;;;;4992580;28;20034;-75
2022/10/28 05:22:51;;;;;;;7.55;3.50;;;12.30;99.90;;;;;;4992374;28;20488;-76
2022/10/28 05:25:18;;;;;;;5.65;2.95;;;12.30;99.90;;;;;;4992601;28;20026;-74
2022/10/28 05:27:43;;;;;;;4.75;3.15;;;12.30;99.90;;;;;;4992575;28;20022;-75
2022/10/28 05:30:10;;;;;;;3.28;2.60;;;12.40;99.90;;;;;;4992225;28;20038;-74
2022/10/28 05:32:36;;;;;;;3.35;2.67;;;12.40;99.90;;;;;;4991981;28;20030;-77
2022/10/28 05:35:02;;;;;;;9.35;3.45;;;12.40;99.90;;;;;;4992143;28;20239;-76
2022/10/28 05:37:28;;;;;;;5.03;2.63;;;12.40;99.90;;;;;;4992442;28;20101;-77
2022/10/28 05:39:54;;;;;;;5.07;3.13;;;12.40;99.90;;;;;;4992064;28;20026;-75
2022/10/28 05:42:19;;;;;;;4.30;2.78;;;12.20;99.90;;;;;;4992021;28;20364;-74
2022/10/28 05:44:45;;;;;;;10.60;3.28;;;12.20;99.90;;;;;;4991999;28;20027;-76
2022/10/28 05:47:11;;;;;;;6.47;3.00;;;12.10;99.90;;;;;;4991517;28;20031;-76
2022/10/28 05:49:36;;;;;;;11.45;3.10;;;11.90;99.90;;;;;;4991910;28;20104;-76
2022/10/28 05:52:03;;;;;;;6.80;2.13;;;11.90;99.90;;;;;;4991989;28;20078;-75
2022/10/28 05:54:29;;;;;;;4.65;3.60;;;11.80;99.90;;;;;;4990622;28;20044;-75
2022/10/28 05:56:54;;;;;;;5.35;3.88;;;11.70;99.90;;;;;;4991623;28;20475;-75
2022/10/28 05:59:20;;;;;;;9.82;4.93;;;11.70;99.90;;;;;;4991577;28;20026;-74
2022/10/28 06:01:46;;;;;;;3.38;2.25;;;11.70;99.90;;;;;;4991490;28;20085;-75
2022/10/28 06:04:11;;;;;;;3.88;2.50;;;11.70;99.90;;;;;;4991374;28;20058;-74
2022/10/28 06:06:37;;;;;;;6.50;2.92;;;11.70;99.90;;;;;;4991563;28;20018;-77
2022/10/28 06:09:03;;;;;;;3.22;2.72;;;11.60;99.90;;;;;;4991789;28;20472;-74
2022/10/28 06:11:29;;;;;;;8.57;2.60;;;11.60;99.90;;;;;;4991515;28;20026;-74
2022/10/28 06:13:55;;;;;;;8.32;3.47;;;11.60;99.90;;;;;;4991498;28;20109;-74
2022/10/28 06:16:20;;;;;;;2.90;2.15;;;11.70;99.90;;;;;;4991160;28;20097;-75
2022/10/28 06:18:46;;;;;;;4.22;2.72;;;11.70;99.90;;;;;;4990841;28;20026;-76
2022/10/28 06:21:12;;;;;;;5.22;2.63;;;11.70;99.90;;;;;;4991307;28;20038;-76
2022/10/28 06:23:37;;;;;;;5.57;2.83;;;11.70;99.90;;;;;;4990022;28;20022;-75
2022/10/28 06:26:04;;;;;;;6.65;3.17;;;11.80;99.90;;;;;;4991404;28;20030;-76
2022/10/28 06:28:30;;;;;;;8.35;2.85;;;11.90;99.90;;;;;;4989843;28;20026;-77
2022/10/28 06:31:07;;;;;;;7.00;3.00;;;11.90;99.90;;;;;;4989292;28;20030;-77
2022/10/28 06:33:33;;;;;;;9.00;3.42;;;11.90;99.90;;;;;;4991034;28;20026;-75
2022/10/28 06:36:00;;;;;;;4.22;2.53;;;12.00;99.90;;;;;;4989643;28;20061;-75
2022/10/28 06:38:27;;;;;;;14.13;3.50;;;12.10;99.90;;;;;;4991127;28;20018;-75
2022/10/28 06:40:53;;;;;;;8.30;3.92;;;12.10;99.90;;;;;;4990971;28;20497;-76
2022/10/28 06:43:19;;;;;;;4.68;2.42;;;12.20;99.90;;;;;;4990881;28;20034;-77
2022/10/28 06:45:47;;;;;;;8.27;2.97;;;12.30;99.90;;;;;;4990731;28;20062;-76
2022/10/28 06:48:12;;;;;;;6.07;2.75;;;12.40;99.90;;;;;;4990845;28;20251;-74
2022/10/28 06:50:38;;;;;;;10.95;3.10;;;12.50;99.90;;;;;;4990863;28;20165;-74
2022/10/28 06:53:07;;;;;;;8.23;2.58;;;12.50;99.90;;;;;;4990665;28;20050;-75
2022/10/28 06:55:32;;;;;;;3.17;2.38;;;12.50;99.90;;;;;;4990340;28;20038;-77
2022/10/28 06:58:00;;;;;;;5.25;3.10;;;12.60;99.90;;;;;;4990335;28;20380;-75
2022/10/28 07:00:26;;;;;;;7.80;3.25;;;12.60;99.90;;;;;;4991319;28;20265;-76
2022/10/28 07:02:52;;;;;;;6.05;2.97;;;12.60;99.90;;;;;;4990327;28;20026;-76
2022/10/28 07:05:17;;;;;;;2.70;2.22;;;12.60;99.90;;;;;;4985326;28;20376;-75
2022/10/28 07:07:43;;;;;;;5.00;3.00;;;12.60;99.90;;;;;;4988422;28;20026;-76
2022/10/28 07:10:09;;;;;;;6.68;3.08;;;12.70;99.90;;;;;;4981095;28;20030;-76
2022/10/28 07:12:36;;;;;;;4.32;3.05;;;12.70;99.90;;;;;;4980318;28;20019;-78
2022/10/28 07:15:02;;;;;;;8.32;3.22;;;;;;;;;;4985762;28;20030;-77
2022/10/28 07:17:27;;;;;;;5.30;2.80;;;12.80;99.90;;;;;;4970930;28;20108;-78
2022/10/28 07:19:53;;;;;;;7.00;2.78;;;12.80;99.90;;;;;;4974397;28;20110;-77
2022/10/28 07:22:18;;;;;;;6.25;2.85;;;12.90;99.90;;;;;;4987803;28;20542;-78
2022/10/28 07:24:44;;;;;;;3.00;2.15;;;12.90;99.90;;;;;;4986058;28;20483;-76
2022/10/28 07:27:10;;;;;;;3.85;3.28;;;13.00;99.90;;;;;;4987075;28;20027;-76
2022/10/28 07:29:36;;;;;;;4.15;3.08;;;;;;;;;;4974169;28;20034;-78
2022/10/28 07:32:01;;;;;;;6.18;3.47;;;13.10;99.90;;;;;;4969642;28;20022;-77
2022/10/28 07:34:27;;;;;;;4.38;2.95;;;13.20;99.90;;;;;;4970530;28;20035;-77
2022/10/28 07:36:54;;;;;;;10.07;3.88;;;13.40;99.90;;;;;;4970727;28;20023;-77
2022/10/28 07:39:20;;;;;;;4.68;3.65;;;13.50;99.90;;;;;;4969390;28;20023;-77
2022/10/28 07:41:46;;;;;;;4.15;2.88;;;13.60;99.90;;;;;;4971107;28;20038;-77
2022/10/28 07:44:13;;;;;;;4.00;2.63;;;13.80;99.90;;;;;;4971076;28;20035;-76
2022/10/28 07:46:38;;;;;;;4.03;2.10;;;13.80;99.90;;;;;;4969164;28;20136;-78
2022/10/28 07:49:05;;;;;;;4.38;2.38;;;14.00;99.90;;;;;;4969558;28;20090;-78
2022/10/28 07:51:31;;;;;;;4.63;2.63;;;14.00;99.90;;;;;;4973365;28;20023;-79
2022/10/28 07:53:58;;;;;;;7.50;3.25;;;14.10;99.90;;;;;;4996637;28;20090;-76
2022/10/28 07:56:24;;;;;;;8.05;2.53;;;14.20;99.90;;;;;;4981753;28;20190;-77
2022/10/28 07:58:50;;;;;;;3.30;2.47;;;14.20;99.90;;;;;;4982127;28;20031;-77
2022/10/28 08:01:17;;;;;;;6.82;2.85;;;14.50;99.90;;;;;;4982638;28;20053;-78
2022/10/28 08:03:43;;;;;;;3.47;1.98;;;14.50;99.90;;;;;;4982536;28;20353;-77
2022/10/28 08:06:27;;;;;;;10.90;3.00;;;14.70;99.90;;;;;;4996101;28;20026;-76
2022/10/28 08:08:55;;;;;;;3.30;2.00;;;14.80;99.90;;;;;;4999832;28;20089;-75
2022/10/28 08:11:22;;;;;;;12.15;2.78;;;14.80;99.90;;;;;;4994832;28;20323;-77
2022/10/28 08:13:48;;;;;;;7.10;3.42;;;14.80;99.90;;;;;;4980636;28;20053;-77
2022/10/28 08:16:14;;;;;;;3.78;3.00;;;14.90;99.90;;;;;;4978151;28;20086;-77
2022/10/28 08:18:40;;;;;;;5.13;2.28;;;;;;;;;;4981864;28;20022;-79
2022/10/28 08:21:08;;;;;;;2.95;2.25;;;14.80;99.90;;;;;;4992409;28;20049;-76
2022/10/28 08:23:34;;;;;;;5.47;3.22;;;14.80;99.90;;;;;;4988795;28;20097;-77
2022/10/28 08:26:01;;;;;;;3.20;2.33;;;14.70;99.90;;;;;;4986297;28;20019;-78
2022/10/28 08:28:27;;;;;;;10.57;3.15;;;14.70;99.90;;;;;;4969168;28;20031;-76
2022/10/28 08:30:58;;;;;;;9.30;3.50;;;14.70;99.90;;;;;;4970589;28;20423;-78
2022/10/28 08:33:23;;;;;;;4.43;2.88;;;14.70;99.90;;;;;;4970680;28;20645;-78
2022/10/28 08:35:50;;;;;;;11.25;3.60;;;14.80;99.90;;;;;;4970475;28;20039;-77
2022/10/28 08:38:17;;;;;;;5.90;2.90;;;14.90;99.90;;;;;;4970392;28;20070;-78
2022/10/28 08:41:14;;;;;;;8.60;2.75;;;15.00;99.90;;;;;;4972160;28;20027;-76
2022/10/28 08:44:02;;;;;;;9.77;3.55;;;15.20;99.90;;;;;;4972149;28;20053;-75
2022/10/28 08:46:36;;;;;;;5.15;2.95;;;15.30;99.90;;;;;;4980755;28;20046;-76
2022/10/28 08:49:07;;;;;;;7.45;3.42;;;15.50;99.90;;;;;;4982926;28;20029;-76
2022/10/28 08:51:46;;;;;;;9.95;3.58;;;15.70;99.90;;;;;;4986850;28;20029;-75
2022/10/28 08:54:23;;;;;;;7.20;3.47;;;15.80;99.90;;;;;;4983154;28;20033;-78
2022/10/28 08:56:50;;;;;;;5.80;3.33;;;16.10;99.90;;;;;;4982764;28;20442;-75
2022/10/28 08:59:33;;;;;;;2.88;2.58;;;16.30;99.90;;;;;;4985623;28;20207;-75
2022/10/28 09:02:03;;;;;;;3.10;2.65;;;16.40;99.90;;;;;;4986531;28;20026;-75
2022/10/28 09:04:41;;;;;;;6.35;4.35;;;16.50;99.90;;;;;;4980776;28;20034;-74
2022/10/28 09:07:19;;;;;;;4.45;2.50;;;16.60;99.90;;;;;;4975339;28;20057;-73
2022/10/28 09:09:46;;;;;;;6.13;2.75;;;16.80;99.90;;;;;;4996038;28;20058;-73
2022/10/28 09:12:26;;;;;;;6.47;2.75;;;16.90;99.90;;;;;;4977961;28;20625;-75
2022/10/28 09:15:18;;;;;;;4.60;2.20;;;17.00;99.90;;;;;;4976099;28;20097;-75
2022/10/28 09:17:59;;;;;;;4.47;1.92;;;17.20;99.90;;;;;;4974200;28;20069;-74
2022/10/28 09:20:42;;;;;;;2.70;2.08;;;17.30;99.90;;;;;;4983458;28;20031;-76
2022/10/28 09:23:29;;;;;;;3.33;1.73;;;17.30;99.90;;;;;;4986456;28;20133;-75
2022/10/28 09:26:00;;;;;;;8.40;3.58;;;17.40;99.90;;;;;;4967961;28;20019;-76
2022/10/28 09:28:25;;;;;;;5.55;2.22;;;17.60;99.90;;;;;;4965654;28;20031;-76
2022/10/28 09:31:31;;;;;;;3.47;1.88;;;17.80;99.90;;;;;;4966395;28;20077;-75
2022/10/28 09:34:20;;;;;;;7.00;2.78;;;17.90;99.90;;;;;;4946025;28;20031;-76
2022/10/28 09:36:51;;;;;;;5.63;2.58;;;18.00;99.90;;;;;;4976740;28;20129;-75
2022/10/28 09:39:23;;;;;;;4.70;2.47;;;18.10;99.90;;;;;;4986129;28;20026;-75
2022/10/28 09:41:50;;;;;;;4.40;2.72;;;18.30;99.90;;;;;;4986364;28;20030;-77
2022/10/28 09:44:44;;;;;;;2.25;1.65;;;18.40;99.90;;;;;;4986690;28;20579;-76
2022/10/28 09:47:39;;;;;;;1.95;1.20;;;18.50;99.90;;;;;;4980963;28;20039;-76
2022/10/28 09:50:13;;;;;;;5.85;1.63;;;18.80;99.90;;;;;;4970079;28;20481;-75
2022/10/28 09:52:52;;;;;;;6.22;2.20;;;19.00;99.90;;;;;;4968590;28;20026;-78
2022/10/28 09:55:20;;;;;;;1.67;1.38;;;19.10;99.90;;;;;;4966628;28;20066;-78
2022/10/28 09:57:46;;;;;;;6.57;1.52;;;19.50;99.90;;;;;;4986154;28;20039;-76
2022/10/28 10:00:14;;;;;;;5.45;2.45;;;19.50;99.90;;;;;;4988251;28;20289;-76
2022/10/28 10:02:41;;;;;;;4.00;2.45;;;19.90;99.90;;;;;;4986010;28;20061;-75
2022/10/28 10:05:13;;;;;;;3.95;2.28;;;19.90;99.90;;;;;;4982076;28;20038;-76
2022/10/28 10:07:49;;;;;;;4.43;2.45;;;20.00;99.90;;;;;;4965334;28;20120;-76
2022/10/28 10:10:30;;;;;;;4.03;2.42;;;20.00;99.90;;;;;;4978859;28;20045;-76
2022/10/28 10:13:00;;;;;;;1.73;1.52;;;20.10;99.90;;;;;;4992719;28;20027;-76
2022/10/28 10:15:37;;;;;;;7.43;1.98;;;20.20;99.90;;;;;;4985399;28;20040;-75
2022/10/28 10:18:05;;;;;;;3.08;1.58;;;20.20;99.90;;;;;;4982363;28;20026;-77
2022/10/28 10:20:49;;;;;;;4.75;2.53;;;20.20;99.90;;;;;;4988100;28;20022;-76
2022/10/28 10:23:32;;;;;;;2.40;1.80;;;20.00;99.90;;;;;;4987090;28;20042;-76
2022/10/28 10:26:00;;;;;;;6.07;1.60;;;19.90;99.90;;;;;;4987404;28;20109;-76
2022/10/28 10:28:27;;;;;;;6.10;1.77;;;19.80;99.90;;;;;;4986467;28;20053;-76
2022/10/28 10:30:58;;;;;;;7.65;1.48;;;19.80;99.90;;;;;;4986904;28;20662;-75
2022/10/28 10:33:43;;;;;;;4.10;2.30;;;19.60;99.90;;;;;;4980947;28;20034;-76
2022/10/28 10:36:09;;;;;;;11.50;1.95;;;19.50;99.90;;;;;;4972605;28;20077;-76
2022/10/28 10:38:50;;;;;;;6.72;2.10;;;19.50;99.90;;;;;;4987286;28;20072;-77
2022/10/28 10:41:36;;;;;;;3.53;2.17;;;19.30;99.90;;;;;;4989470;28;20410;-76
2022/10/28 10:44:28;;;;;;;6.35;2.10;;;19.40;99.90;;;;;;4987838;28;20102;-77
2022/10/28 10:47:00;;;;;;;6.03;1.70;;;19.60;99.90;;;;;;4972519;28;20391;-76
2022/10/28 10:49:27;;;;;;;1.73;1.45;;;19.60;99.90;;;;;;4985345;28;20504;-77
2022/10/28 10:51:56;;;;;;;2.05;1.85;;;19.70;99.90;;;;;;4985095;28;20034;-76
2022/10/28 10:54:26;;;;;;;4.53;1.75;;;19.80;99.90;;;;;;4985218;28;20041;-78
2022/10/28 10:56:52;;;;;;;1.80;1.23;;;19.90;99.90;;;;;;4986025;28;20038;-76
2022/10/28 10:59:28;;;;;;;7.90;2.22;;;19.90;99.90;;;;;;4983564;28;20019;-75
2022/10/28 11:01:55;;;;;;;2.25;1.48;;;19.90;99.90;;;;;;4985502;28;20089;-75
2022/10/28 11:04:24;;;;;;;2.20;1.38;;;19.80;99.90;;;;;;4986019;28;20126;-75
2022/10/28 11:06:59;;;;;;;5.43;2.47;;;19.90;99.90;;;;;;4986434;28;20517;-75
2022/10/28 11:09:41;;;;;;;5.68;1.90;;;20.00;99.90;;;;;;4984734;28;20758;-75
2022/10/28 11:12:34;;;;;;;10.75;1.83;;;20.20;99.90;;;;;;4986101;28;20501;-75
2022/10/28 11:15:01;;;;;;;6.25;2.33;;;19.10;99.90;;;;;;4983180;28;20054;-76
2022/10/28 11:17:30;;;;;;;4.30;2.25;;;20.60;99.90;;;;;;4984724;28;20018;-73
2022/10/28 11:19:58;;;;;;;3.25;1.85;;;20.70;99.90;;;;;;4985873;28;20026;-74
2022/10/28 11:22:52;;;;;;;3.83;2.15;;;21.00;99.90;;;;;;4986419;28;20054;-74
2022/10/28 11:25:39;;;;;;;1.65;1.38;;;21.20;99.90;;;;;;4986924;28;20027;-74
2022/10/28 11:28:17;;;;;;;5.15;1.63;;;21.40;99.90;;;;;;4985888;28;20030;-74
2022/10/28 11:31:07;;;;;;;5.40;1.40;;;21.70;99.90;;;;;;4984792;28;20423;-73
2022/10/28 11:33:36;;;;;;;5.72;1.85;;;21.70;99.90;;;;;;4985979;28;20577;-75
2022/10/28 11:36:48;;;;;;;8.23;1.73;;;21.90;99.90;;;;;;4986127;28;20049;-76
2022/10/28 11:39:28;;;;;;;2.83;1.48;;;22.00;99.90;;;;;;5001475;28;20061;-75
2022/10/28 11:42:27;;;;;;;3.08;1.40;;;22.10;99.90;;;;;;4986802;28;20022;-75
2022/10/28 11:44:56;;;;;;;8.10;1.65;;;22.00;99.90;;;;;;4985364;28;20026;-76
2022/10/28 11:47:40;;;;;;;3.33;1.75;;;22.10;99.90;;;;;;4984650;28;20037;-75
2022/10/28 11:50:17;;;;;;;2.53;1.35;;;22.00;99.90;;;;;;4984969;28;20034;-75
2022/10/28 11:52:58;;;;;;;3.17;1.80;;;22.10;99.90;;;;;;4986404;28;20452;-78
2022/10/28 11:55:35;;;;;;;1.83;1.40;;;;;;;;;;4986111;28;20062;-75
2022/10/28 11:58:41;;;;;;;19.08;1.70;;;22.30;99.90;;;;;;4986924;28;20029;-75
2022/10/28 12:01:47;;;;;;;2.38;1.77;;;22.50;99.90;;;;;;4949249;28;20539;-77
2022/10/28 12:04:13;;;;;;;6.03;1.13;;;22.90;99.90;;;;;;4974845;28;20432;-75
2022/10/28 12:06:56;;;;;;;5.47;2.13;;;23.20;99.90;;;;;;4967275;28;20023;-75
2022/10/28 12:09:47;;;;;;;7.10;1.50;;;23.10;99.90;;;;;;4966693;28;20035;-74
2022/10/28 12:12:33;;;;;;;1.77;1.63;;;23.20;99.90;;;;;;4966910;28;20026;-74
2022/10/28 12:15:36;;;;;;;1.65;1.55;;;23.20;99.90;;;;;;4981753;28;20086;-76
2022/10/28 12:18:31;;;;;;;1.95;1.30;;;23.30;99.90;;;;;;4975603;28;20464;-79
2022/10/28 12:21:05;;;;;;;6.93;1.52;;;23.40;99.90;;;;;;4990712;28;20050;-78
2022/10/28 12:23:34;;;;;;;4.00;1.40;;;23.50;99.90;;;;;;4981014;28;20066;-79
2022/10/28 12:26:03;;;;;;;1.67;1.58;;;23.80;99.90;;;;;;4988059;28;20022;-78
2022/10/28 12:28:46;;;;;;;5.20;2.15;;;24.00;99.90;;;;;;4988250;28;20125;-78
2022/10/28 12:31:36;;;;;;;8.50;2.13;;;24.40;99.90;;;;;;4989510;28;20105;-77
2022/10/28 12:34:08;;;;;;;7.82;1.85;;;24.40;99.90;;;;;;4987272;28;20027;-79
2022/10/28 12:36:40;;;;;;;3.15;2.03;;;24.60;99.60;;;;;;4988582;28;20038;-79
2022/10/28 12:39:16;;;;;;;1.25;1.02;;;25.00;98.20;;;;;;4989147;28;20442;-79
2022/10/28 12:42:13;;;;;;;2.72;1.33;;;25.00;97.90;;;;;;4989505;28;20156;-78
2022/10/28 12:44:40;;;;;;;5.68;3.00;;;25.20;98.00;;;;;;4986210;28;20265;-78
2022/10/28 12:47:44;;;;;;;2.17;1.33;;;25.60;95.30;;;;;;4987108;28;20483;-78
2022/10/28 12:50:28;;;;;;;1.55;1.13;;;27.20;85.20;;;;;;4956962;28;20073;-78
2022/10/28 12:53:00;;;;;;;3.90;1.10;;;28.00;78.70;;;;;;4987358;28;20053;-78
2022/10/28 12:55:45;;;;;;;6.15;1.63;;;28.80;72.80;;;;;;4987855;28;20045;-79
2022/10/28 12:58:35;;;;;;;1.63;1.15;;;29.20;69.10;;;;;;4987707;28;20054;-78
2022/10/28 13:01:07;;;;;;;6.32;1.42;;;29.70;65.90;;;;;;4987471;28;20502;-78
2022/10/28 13:03:40;;;;;;;3.83;1.35;;;30.00;62.80;;;;;;4989236;28;20022;-79
2022/10/28 13:06:20;;;;;;;3.45;1.00;;;30.80;61.10;;;;;;4974302;28;20033;-77
2022/10/28 13:09:13;;;;;;;2.45;1.35;;;31.30;58.50;;;;;;4973122;28;20488;-79
2022/10/28 13:11:50;;;;;;;11.63;1.08;;;31.90;57.90;;;;;;4970093;28;20023;-77
2022/10/28 13:14:54;;;;;;;9.00;1.83;;;31.80;56.60;;;;;;4970608;28;20082;-80